Pojoaque, New Mexico
Current Conditions -  °F | °C
As of 1:53 AM on Thursday 23 Oct 2014 (Local Time) from KSAF Reporting Station
Clear Clear  
Wind Chill: 47°   Ceiling: Unl
Heat Index: 49°   Visibility: 10mi
Dew Point: 35°   Wind: 6mph
Humidity: 59%   Direction: 340°NNW
Pressure: 30.24"   Gusts: NA
Location:  35.7017°N, 105.921°W
Report Text: KSAF 230753Z AUTO 34005KT 10SM CLR 09/02 A3024 RMK AO2 SLP170 T00940017 $
Loading
Personal Weather Stations






























Interactive Weather Map
Tropical Storm Tracking
New forecast layout! Learn more

10-Day Weather Forecast

Advertisements
Track Severe Weather on mobile